createdAt,value
2023-04-22T00:02:17.026Z,10.44
2023-04-22T00:04:46.459Z,10.36
2023-04-22T00:07:15.097Z,10.36
2023-04-22T00:09:42.327Z,10.29
2023-04-22T00:12:09.383Z,10.21
2023-04-22T00:14:35.972Z,10.19
2023-04-22T00:17:02.702Z,10.24
2023-04-22T00:19:29.309Z,10.20
2023-04-22T00:21:56.171Z,10.48
2023-04-22T00:24:22.824Z,10.64
2023-04-22T00:26:49.434Z,10.72
2023-04-22T00:29:16.050Z,10.65
2023-04-22T00:31:42.859Z,10.45
2023-04-22T00:34:09.641Z,10.26
2023-04-22T00:36:36.527Z,10.17
2023-04-22T00:39:03.284Z,10.26
2023-04-22T00:41:31.173Z,10.24
2023-04-22T00:43:58.473Z,10.21
2023-04-22T00:46:25.703Z,10.09
2023-04-22T00:48:52.960Z,10.36
2023-04-22T00:51:19.572Z,10.44
2023-04-22T00:53:46.201Z,10.61
2023-04-22T00:56:13.101Z,10.49
2023-04-22T00:58:39.793Z,10.30
2023-04-22T01:01:06.912Z,10.28
2023-04-22T01:03:34.492Z,10.45
2023-04-22T01:06:01.291Z,10.25
2023-04-22T01:08:30.936Z,10.18
2023-04-22T01:10:57.909Z,10.20
2023-04-22T01:13:24.549Z,10.13
2023-04-22T01:15:52.946Z,9.93
2023-04-22T01:18:19.907Z,9.98
2023-04-22T01:20:46.572Z,9.98
2023-04-22T01:23:21.328Z,10.00
2023-04-22T01:25:49.120Z,10.10
2023-04-22T01:28:16.983Z,10.09
2023-04-22T01:30:44.050Z,9.91
2023-04-22T01:33:11.580Z,9.89
2023-04-22T01:35:38.569Z,9.94
2023-04-22T01:38:06.850Z,9.97
2023-04-22T01:40:34.223Z,9.90
2023-04-22T01:43:01.481Z,9.80
2023-04-22T01:45:28.536Z,10.10
2023-04-22T01:47:56.104Z,9.96
2023-04-22T01:50:23.199Z,9.85
2023-04-22T01:52:50.091Z,9.90
2023-04-22T01:55:17.239Z,9.82
2023-04-22T01:57:44.019Z,9.79
2023-04-22T02:00:11.614Z,9.66
2023-04-22T02:02:44.785Z,9.73
2023-04-22T02:05:11.578Z,9.65
2023-04-22T02:07:38.323Z,9.61
2023-04-22T02:10:05.963Z,9.50
2023-04-22T02:12:32.661Z,9.44
2023-04-22T02:14:59.383Z,9.45
2023-04-22T02:17:26.496Z,9.42
2023-04-22T02:19:53.616Z,9.39
2023-04-22T02:22:20.845Z,9.26
2023-04-22T02:24:50.894Z,9.31
2023-04-22T02:27:17.607Z,9.45
2023-04-22T02:29:47.290Z,9.46
2023-04-22T02:32:17.237Z,9.59
2023-04-22T02:34:43.871Z,9.54
2023-04-22T02:37:10.549Z,9.94
2023-04-22T02:39:37.456Z,10.06
2023-04-22T02:42:04.423Z,10.22
2023-04-22T02:44:31.077Z,10.23
2023-04-22T02:46:57.722Z,10.28
2023-04-22T02:49:24.550Z,10.27
2023-04-22T02:51:52.842Z,10.44
2023-04-22T02:54:19.518Z,10.42
2023-04-22T02:56:46.620Z,10.42
2023-04-22T02:59:13.246Z,10.29
2023-04-22T03:01:39.992Z,10.11
2023-04-22T03:04:12.435Z,10.14
2023-04-22T03:06:39.166Z,10.40
2023-04-22T03:09:06.137Z,10.34
2023-04-22T03:11:32.881Z,10.16
2023-04-22T03:13:59.527Z,10.29
2023-04-22T03:16:27.101Z,10.33
2023-04-22T03:18:55.744Z,10.61
2023-04-22T03:21:22.408Z,10.56
2023-04-22T03:23:50.541Z,10.44
2023-04-22T03:26:18.230Z,10.27
2023-04-22T03:28:45.726Z,10.40
2023-04-22T03:31:12.360Z,10.74
2023-04-22T03:33:39.309Z,10.65
2023-04-22T03:36:12.936Z,10.82
2023-04-22T03:38:39.720Z,10.81
2023-04-22T03:41:06.693Z,10.68
2023-04-22T03:43:39.996Z,10.73
2023-04-22T03:46:08.899Z,10.69
2023-04-22T03:48:39.681Z,10.90
2023-04-22T03:51:11.431Z,10.72
2023-04-22T03:53:40.176Z,10.81
2023-04-22T03:56:08.077Z,10.99
2023-04-22T03:58:38.846Z,11.10
2023-04-22T04:01:07.933Z,11.11
2023-04-22T04:03:35.605Z,11.13
2023-04-22T04:06:03.311Z,11.10
2023-04-22T04:08:30.369Z,11.35
2023-04-22T04:10:58.120Z,11.25
2023-04-22T04:13:25.123Z,11.21
2023-04-22T04:16:10.069Z,11.19
2023-04-22T04:18:39.210Z,11.18
2023-04-22T04:21:06.196Z,11.10
2023-04-22T04:23:37.897Z,11.20
2023-04-22T04:26:05.785Z,11.38
2023-04-22T04:28:36.124Z,11.60
2023-04-22T04:31:03.037Z,11.79
2023-04-22T04:33:31.845Z,11.98
2023-04-22T04:35:59.220Z,12.17
2023-04-22T04:38:30.802Z,12.44
2023-04-22T04:40:58.081Z,12.69
2023-04-22T04:43:26.088Z,13.06
2023-04-22T04:46:21.225Z,13.23
2023-04-22T04:48:48.732Z,13.39
2023-04-22T04:51:17.546Z,13.21
2023-04-22T04:53:51.668Z,12.77
2023-04-22T04:56:18.708Z,12.58
2023-04-22T04:58:46.446Z,12.30
2023-04-22T05:01:18.197Z,12.28
2023-04-22T05:03:46.337Z,12.25
2023-04-22T05:06:15.520Z,12.27
2023-04-22T05:08:46.946Z,12.21
2023-04-22T05:11:13.694Z,12.42
2023-04-22T05:13:41.882Z,12.74
2023-04-22T05:16:13.042Z,13.19
2023-04-22T05:18:40.727Z,13.44
2023-04-22T05:21:09.556Z,13.41
2023-04-22T05:23:36.494Z,13.47
2023-04-22T05:26:05.741Z,13.40
2023-04-22T05:28:33.246Z,13.36
2023-04-22T05:30:59.956Z,13.30
2023-04-22T05:33:28.963Z,13.30
2023-04-22T05:35:56.268Z,13.15
2023-04-22T05:38:23.379Z,13.21
2023-04-22T05:40:50.217Z,13.30
2023-04-22T05:43:16.989Z,13.27
2023-04-22T05:45:49.582Z,13.37
2023-04-22T05:48:17.523Z,13.31
2023-04-22T05:50:55.337Z,13.25
2023-04-22T05:53:22.089Z,13.22
2023-04-22T05:55:49.016Z,13.15
2023-04-22T05:58:15.808Z,13.17
2023-04-22T06:00:57.856Z,13.27
2023-04-22T06:04:00.161Z,13.33
2023-04-22T06:06:27.515Z,13.59
2023-04-22T06:08:54.239Z,13.78
2023-04-22T06:11:20.996Z,13.74
2023-04-22T06:13:47.662Z,13.66
2023-04-22T06:16:15.328Z,13.92
2023-04-22T06:18:43.616Z,14.38
2023-04-22T06:21:12.120Z,14.67
2023-04-22T06:23:39.583Z,14.52
2023-04-22T06:26:06.277Z,14.83
2023-04-22T06:28:33.891Z,15.17
2023-04-22T06:31:05.392Z,15.11
2023-04-22T06:33:31.988Z,15.05
2023-04-22T06:35:59.168Z,15.11
2023-04-22T06:38:27.017Z,15.02
2023-04-22T06:41:14.026Z,14.99
2023-04-22T06:43:43.906Z,14.89
2023-04-22T06:46:29.044Z,15.02
2023-04-22T06:49:25.811Z,14.98
2023-04-22T06:51:52.492Z,15.21
2023-04-22T06:54:19.142Z,15.51
2023-04-22T06:56:45.853Z,15.59
2023-04-22T06:59:12.655Z,15.88
2023-04-22T07:01:39.439Z,16.07
2023-04-22T07:04:06.489Z,16.21
2023-04-22T07:06:36.203Z,16.07
2023-04-22T07:09:03.556Z,15.76
2023-04-22T07:11:31.536Z,15.86
2023-04-22T07:14:02.799Z,15.93
2023-04-22T07:16:29.540Z,16.21
2023-04-22T07:18:56.320Z,16.14
2023-04-22T07:21:23.003Z,16.23
2023-04-22T07:23:49.788Z,15.72
2023-04-22T07:26:16.411Z,15.75
2023-04-22T07:28:43.158Z,15.62
2023-04-22T07:31:11.238Z,15.73
2023-04-22T07:33:37.900Z,15.61
2023-04-22T07:36:05.009Z,15.71
2023-04-22T07:38:31.641Z,15.63
2023-04-22T07:40:58.333Z,15.74
2023-04-22T07:43:33.846Z,15.78
2023-04-22T07:46:00.624Z,15.87
2023-04-22T07:48:27.441Z,16.00
2023-04-22T07:50:54.050Z,15.91
2023-04-22T07:53:21.057Z,15.84
2023-04-22T07:55:49.748Z,16.14
2023-04-22T07:58:17.250Z,15.88
2023-04-22T08:00:44.017Z,16.01
2023-04-22T08:03:11.036Z,16.18
2023-04-22T08:05:38.050Z,16.31
2023-04-22T08:08:08.258Z,16.73
2023-04-22T08:10:35.005Z,17.06
2023-04-22T08:13:01.717Z,17.24
2023-04-22T08:15:28.534Z,17.57
2023-04-22T08:17:57.845Z,17.58
2023-04-22T08:20:49.579Z,17.76
2023-04-22T08:23:16.336Z,17.63
2023-04-22T08:25:43.126Z,17.92
2023-04-22T08:28:09.971Z,17.88
2023-04-22T08:30:39.155Z,17.99
2023-04-22T08:33:06.058Z,17.95
2023-04-22T08:35:35.352Z,18.11
2023-04-22T08:38:02.327Z,18.23
2023-04-22T08:40:29.336Z,18.32
2023-04-22T08:42:57.460Z,18.48
2023-04-22T08:45:24.407Z,18.63
2023-04-22T08:47:51.835Z,18.60
2023-04-22T08:50:20.962Z,18.39
2023-04-22T08:52:47.653Z,18.29
2023-04-22T08:55:16.591Z,18.23
2023-04-22T08:57:44.138Z,18.28
2023-04-22T09:00:11.188Z,18.52
2023-04-22T09:02:38.829Z,18.59
2023-04-22T09:05:11.209Z,18.41
2023-04-22T09:07:38.551Z,18.61
2023-04-22T09:10:06.108Z,18.78
2023-04-22T09:12:32.766Z,18.79
2023-04-22T09:14:59.401Z,18.67
2023-04-22T09:17:34.339Z,18.72
2023-04-22T09:20:02.292Z,18.81
2023-04-22T09:22:31.221Z,18.83
2023-04-22T09:24:57.867Z,19.06
2023-04-22T09:27:25.282Z,19.03
2023-04-22T09:29:55.823Z,18.99
2023-04-22T09:32:25.855Z,19.05
2023-04-22T09:34:54.430Z,19.08
2023-04-22T09:37:39.131Z,19.27
2023-04-22T09:40:09.716Z,19.27
2023-04-22T09:42:48.713Z,19.25
2023-04-22T09:45:25.595Z,18.92
2023-04-22T09:47:54.801Z,19.12
2023-04-22T09:50:26.903Z,19.20
2023-04-22T09:54:22.142Z,18.96
2023-04-22T09:56:51.027Z,19.02
2023-04-22T09:59:36.952Z,19.12
2023-04-22T10:02:04.665Z,19.22
2023-04-22T10:04:34.958Z,19.06
2023-04-22T10:07:04.495Z,19.13
2023-04-22T10:09:35.114Z,19.20
2023-04-22T10:12:08.072Z,19.40
2023-04-22T10:14:37.412Z,19.57
2023-04-22T10:17:07.718Z,19.44
2023-04-22T10:19:38.668Z,19.51
2023-04-22T10:22:05.737Z,19.70
2023-04-22T10:24:37.353Z,19.75
2023-04-22T10:27:08.433Z,19.88
2023-04-22T10:29:40.983Z,20.02
2023-04-22T10:32:11.616Z,20.01
2023-04-22T10:34:41.292Z,19.92
2023-04-22T10:37:11.469Z,20.03
2023-04-22T10:39:39.794Z,20.13
2023-04-22T10:42:15.918Z,20.42
2023-04-22T10:45:02.873Z,20.09
2023-04-22T10:47:37.906Z,20.00
2023-04-22T10:50:18.043Z,20.13
2023-04-22T10:53:18.387Z,20.08
2023-04-22T10:55:56.285Z,20.14
2023-04-22T10:58:24.491Z,20.20
2023-04-22T11:01:00.779Z,20.20
2023-04-22T11:03:29.965Z,20.36
2023-04-22T11:06:30.363Z,20.47
2023-04-22T11:09:16.922Z,20.62
2023-04-22T11:11:43.686Z,20.77
2023-04-22T11:14:12.703Z,21.05
2023-04-22T11:16:42.726Z,21.12
2023-04-22T11:19:09.805Z,20.96
2023-04-22T11:21:36.685Z,21.03
2023-04-22T11:24:16.754Z,20.90
2023-04-22T11:26:46.986Z,21.05
2023-04-22T11:29:13.815Z,21.26
2023-04-22T11:31:46.784Z,20.83
2023-04-22T11:34:13.624Z,21.03
2023-04-22T11:36:45.286Z,21.07
2023-04-22T11:39:21.465Z,21.11
2023-04-22T11:41:48.210Z,21.03
2023-04-22T11:44:15.146Z,21.07
2023-04-22T11:46:51.080Z,20.92
2023-04-22T11:49:18.476Z,21.03
2023-04-22T11:52:05.735Z,20.95
2023-04-22T11:54:37.261Z,21.12
2023-04-22T11:57:06.052Z,21.00
2023-04-22T11:59:32.756Z,21.06
2023-04-22T12:02:05.994Z,21.28
2023-04-22T12:04:40.219Z,21.15
2023-04-22T12:07:07.541Z,21.32
2023-04-22T12:09:34.724Z,21.37
2023-04-22T12:12:04.846Z,21.45
2023-04-22T12:14:34.666Z,21.41
2023-04-22T12:17:11.164Z,21.30
2023-04-22T12:19:38.332Z,21.26
2023-04-22T12:22:11.242Z,21.23
2023-04-22T12:24:45.874Z,21.35
2023-04-22T12:27:14.655Z,21.31
2023-04-22T12:29:54.315Z,21.27
2023-04-22T12:32:24.288Z,21.30
2023-04-22T12:34:51.694Z,21.48
2023-04-22T12:37:20.965Z,21.65
2023-04-22T12:39:47.664Z,21.45
2023-04-22T12:42:14.547Z,21.24
2023-04-22T12:44:44.212Z,21.07
2023-04-22T12:47:13.989Z,21.09
2023-04-22T12:49:41.039Z,21.21
2023-04-22T12:52:08.026Z,21.32
2023-04-22T12:54:38.081Z,21.12
2023-04-22T12:57:13.477Z,21.31
2023-04-22T13:00:03.628Z,21.60
2023-04-22T13:02:56.406Z,21.83
2023-04-22T13:05:23.429Z,21.93
2023-04-22T13:07:59.541Z,21.93
2023-04-22T13:10:33.150Z,21.92
2023-04-22T13:13:15.414Z,21.83
2023-04-22T13:15:44.219Z,21.81
2023-04-22T13:18:11.066Z,21.60
2023-04-22T13:20:37.905Z,21.98
2023-04-22T13:23:04.985Z,21.72
2023-04-22T13:25:34.746Z,21.89
2023-04-22T13:28:01.643Z,22.09
2023-04-22T13:30:28.384Z,22.06
2023-04-22T13:32:55.054Z,21.89
2023-04-22T13:35:29.366Z,21.84
2023-04-22T13:37:56.185Z,21.82
2023-04-22T13:40:22.909Z,21.81
2023-04-22T13:43:00.916Z,21.53
2023-04-22T13:45:30.953Z,21.36
2023-04-22T13:48:01.654Z,21.48
2023-04-22T13:50:31.288Z,21.41
2023-04-22T13:53:00.600Z,21.50
2023-04-22T13:55:27.414Z,21.30
2023-04-22T13:57:54.116Z,21.32
2023-04-22T14:00:28.279Z,21.37
2023-04-22T14:02:55.156Z,21.31
2023-04-22T14:05:21.840Z,21.38
2023-04-22T14:07:58.660Z,21.41
2023-04-22T14:10:27.914Z,21.52
2023-04-22T14:13:05.963Z,21.67
2023-04-22T14:15:32.681Z,21.70
2023-04-22T14:17:59.446Z,21.89
2023-04-22T14:20:26.249Z,21.74
2023-04-22T14:22:56.031Z,21.71
2023-04-22T14:25:25.157Z,21.65
2023-04-22T14:27:51.813Z,21.53
2023-04-22T14:30:22.032Z,21.57
2023-04-22T14:32:51.944Z,21.91
2023-04-22T14:35:27.786Z,22.22
2023-04-22T14:37:54.405Z,22.44
2023-04-22T14:40:30.799Z,22.60
2023-04-22T14:42:58.807Z,22.38
2023-04-22T14:45:27.553Z,22.47
2023-04-22T14:47:58.412Z,22.22
2023-04-22T14:50:25.764Z,22.27
2023-04-22T14:52:55.174Z,22.43
2023-04-22T14:55:47.560Z,22.30
2023-04-22T14:58:14.290Z,22.49
2023-04-22T15:00:41.361Z,22.86
2023-04-22T15:03:08.672Z,22.63
2023-04-22T15:05:41.103Z,22.73
2023-04-22T15:08:10.016Z,22.99
2023-04-22T15:10:36.786Z,23.08
2023-04-22T15:13:03.402Z,22.72
2023-04-22T15:15:30.258Z,22.75
2023-04-22T15:18:00.548Z,22.59
2023-04-22T15:20:27.187Z,22.38
2023-04-22T15:22:56.377Z,22.44
2023-04-22T15:25:48.343Z,22.09
2023-04-22T15:28:15.100Z,21.90
2023-04-22T15:30:41.745Z,21.87
2023-04-22T15:33:08.512Z,21.77
2023-04-22T15:35:35.636Z,21.65
2023-04-22T15:38:02.972Z,21.82
2023-04-22T15:40:36.116Z,21.86
2023-04-22T15:43:02.974Z,22.45
2023-04-22T15:45:29.684Z,22.18
2023-04-22T15:48:06.004Z,22.36
2023-04-22T15:50:34.196Z,22.23
2023-04-22T15:53:01.019Z,22.04
2023-04-22T15:55:52.249Z,22.32
2023-04-22T15:58:48.100Z,22.07
2023-04-22T16:01:19.325Z,22.27
2023-04-22T16:03:50.229Z,21.98
2023-04-22T16:06:20.288Z,22.15
2023-04-22T16:08:47.683Z,22.19
2023-04-22T16:11:39.295Z,21.75
2023-04-22T16:14:06.143Z,21.66
2023-04-22T16:16:32.876Z,21.58
2023-04-22T16:19:02.771Z,21.51
2023-04-22T16:21:35.151Z,21.30
2023-04-22T16:24:02.112Z,21.16
2023-04-22T16:26:28.752Z,21.19
2023-04-22T16:29:01.668Z,21.18
2023-04-22T16:31:28.363Z,20.99
2023-04-22T16:33:55.023Z,21.13
2023-04-22T16:36:25.364Z,20.97
2023-04-22T16:38:52.022Z,20.77
2023-04-22T16:41:23.634Z,20.77
2023-04-22T16:43:50.488Z,20.58
2023-04-22T16:46:17.236Z,20.51
2023-04-22T16:48:45.362Z,20.74
2023-04-22T16:51:19.372Z,20.66
2023-04-22T16:53:46.198Z,20.43
2023-04-22T16:56:22.786Z,20.56
2023-04-22T16:58:49.744Z,20.28
2023-04-22T17:01:16.466Z,20.36
2023-04-22T17:03:43.361Z,20.14
2023-04-22T17:06:40.765Z,20.05
2023-04-22T17:09:09.519Z,19.84
2023-04-22T17:11:36.229Z,19.60
2023-04-22T17:14:08.143Z,19.22
2023-04-22T17:16:34.906Z,18.86
2023-04-22T17:19:01.528Z,18.52
2023-04-22T17:21:28.775Z,18.53
2023-04-22T17:23:55.567Z,18.23
2023-04-22T17:26:29.057Z,18.24
2023-04-22T17:28:55.786Z,18.10
2023-04-22T17:31:23.469Z,17.76
2023-04-22T17:33:51.701Z,17.52
2023-04-22T17:36:19.978Z,17.38
2023-04-22T17:38:47.024Z,17.29
2023-04-22T17:41:13.757Z,17.26
2023-04-22T17:43:40.823Z,16.85
2023-04-22T17:46:14.193Z,16.97
2023-04-22T17:48:46.586Z,16.79
2023-04-22T17:51:13.852Z,16.71
2023-04-22T17:53:43.677Z,16.49
2023-04-22T17:56:10.674Z,16.43
2023-04-22T17:58:41.200Z,16.24
2023-04-22T18:01:20.253Z,16.08
2023-04-22T18:03:47.258Z,15.92
2023-04-22T18:06:14.171Z,15.73
2023-04-22T18:08:48.022Z,15.63
2023-04-22T18:11:14.771Z,15.64
2023-04-22T18:13:43.917Z,15.59
2023-04-22T18:16:19.786Z,15.47
2023-04-22T18:18:46.609Z,15.41
2023-04-22T18:21:13.316Z,15.44
2023-04-22T18:23:44.663Z,15.40
2023-04-22T18:26:18.796Z,15.37
2023-04-22T18:28:45.566Z,15.27
2023-04-22T18:31:12.282Z,15.25
2023-04-22T18:33:41.997Z,15.20
2023-04-22T18:36:11.836Z,15.22
2023-04-22T18:38:42.032Z,15.22
2023-04-22T18:41:13.570Z,15.06
2023-04-22T18:43:40.905Z,14.97
2023-04-22T18:46:10.937Z,14.98
2023-04-22T18:48:40.348Z,14.89
2023-04-22T18:51:13.491Z,14.92
2023-04-22T18:53:42.953Z,14.86
2023-04-22T18:56:12.134Z,14.87
2023-04-22T18:58:41.975Z,14.76
2023-04-22T19:01:13.779Z,14.84
2023-04-22T19:03:41.202Z,14.87
2023-04-22T19:06:09.175Z,14.77
2023-04-22T19:08:35.945Z,14.76
2023-04-22T19:11:02.749Z,14.82
2023-04-22T19:13:30.258Z,14.69
2023-04-22T19:15:57.830Z,14.69
2023-04-22T19:18:24.548Z,14.69
2023-04-22T19:20:51.284Z,14.60
2023-04-22T19:23:18.245Z,14.69
2023-04-22T19:25:44.953Z,14.61
2023-04-22T19:28:11.695Z,14.70
2023-04-22T19:30:38.373Z,14.68
2023-04-22T19:33:05.088Z,14.70
2023-04-22T19:35:34.350Z,14.74
2023-04-22T19:38:01.452Z,14.63
2023-04-22T19:40:30.936Z,14.58
2023-04-22T19:42:59.073Z,14.56
2023-04-22T19:45:26.843Z,14.50
2023-04-22T19:47:53.749Z,14.47
2023-04-22T19:50:20.691Z,14.48
2023-04-22T19:52:48.000Z,14.46
2023-04-22T19:55:14.914Z,14.45
2023-04-22T19:57:42.385Z,14.45
2023-04-22T20:00:11.136Z,14.42
2023-04-22T20:02:42.025Z,14.42
2023-04-22T20:05:09.451Z,14.48
2023-04-22T20:07:36.832Z,14.46
2023-04-22T20:10:06.259Z,14.46
2023-04-22T20:12:33.486Z,14.51
2023-04-22T20:15:00.412Z,14.44
2023-04-22T20:17:27.681Z,14.38
2023-04-22T20:19:58.263Z,14.51
2023-04-22T20:22:25.377Z,14.48
2023-04-22T20:25:05.093Z,14.56
2023-04-22T20:27:32.753Z,14.47
2023-04-22T20:30:00.454Z,14.47
2023-04-22T20:32:31.550Z,14.55
2023-04-22T20:34:59.276Z,14.48
2023-04-22T20:37:27.110Z,14.46
2023-04-22T20:39:54.609Z,14.43
2023-04-22T20:42:22.938Z,14.30
2023-04-22T20:44:49.543Z,14.25
2023-04-22T20:47:17.708Z,14.32
2023-04-22T20:49:44.715Z,14.18
2023-04-22T20:52:11.439Z,14.13
2023-04-22T20:54:42.855Z,13.97
2023-04-22T20:57:16.310Z,13.84
2023-04-22T20:59:42.971Z,13.81
2023-04-22T21:02:10.056Z,13.67
2023-04-22T21:04:37.229Z,13.54
2023-04-22T21:07:08.844Z,13.47
2023-04-22T21:09:35.763Z,13.43
2023-04-22T21:12:02.796Z,13.38
2023-04-22T21:14:32.401Z,13.37
2023-04-22T21:17:23.315Z,13.29
2023-04-22T21:19:51.831Z,13.30
2023-04-22T21:22:23.645Z,13.34
2023-04-22T21:24:51.647Z,13.27
2023-04-22T21:27:19.202Z,13.30
2023-04-22T21:29:47.149Z,13.23
2023-04-22T21:32:14.479Z,13.20
2023-04-22T21:34:41.890Z,13.17
2023-04-22T21:37:09.173Z,13.10
2023-04-22T21:39:38.632Z,13.01
2023-04-22T21:42:08.857Z,12.98
2023-04-22T21:44:36.846Z,12.93
2023-04-22T21:47:04.096Z,12.91
2023-04-22T21:49:30.986Z,12.86
2023-04-22T21:51:57.931Z,12.79
2023-04-22T21:54:27.968Z,12.77
2023-04-22T21:57:00.787Z,12.84
2023-04-22T21:59:27.493Z,12.81
2023-04-22T22:01:56.802Z,12.78
2023-04-22T22:04:23.686Z,12.70
2023-04-22T22:06:50.756Z,12.75
2023-04-22T22:09:17.471Z,12.79
2023-04-22T22:11:44.198Z,12.71
2023-04-22T22:14:11.694Z,12.79
2023-04-22T22:16:39.911Z,12.75
2023-04-22T22:19:08.084Z,12.69
2023-04-22T22:21:37.820Z,12.60
2023-04-22T22:24:04.632Z,12.62
2023-04-22T22:26:32.085Z,12.67
2023-04-22T22:28:59.130Z,12.70
2023-04-22T22:31:27.350Z,12.69
2023-04-22T22:33:54.318Z,12.69
2023-04-22T22:36:21.695Z,12.64
2023-04-22T22:38:48.544Z,12.59
2023-04-22T22:41:15.325Z,12.51
2023-04-22T22:43:41.939Z,12.43
2023-04-22T22:46:08.886Z,12.42
2023-04-22T22:48:40.297Z,12.39
2023-04-22T22:51:07.197Z,12.39
2023-04-22T22:53:40.095Z,12.36
2023-04-22T22:56:07.041Z,12.39
2023-04-22T22:58:36.152Z,12.21
2023-04-22T23:01:03.700Z,12.16
2023-04-22T23:03:31.895Z,12.24
2023-04-22T23:05:58.944Z,12.23
2023-04-22T23:08:27.879Z,12.32
2023-04-22T23:10:54.690Z,12.32
2023-04-22T23:13:21.546Z,12.38
2023-04-22T23:15:48.518Z,12.45
2023-04-22T23:18:17.596Z,12.47
2023-04-22T23:20:44.993Z,12.51
2023-04-22T23:23:12.926Z,12.57
2023-04-22T23:25:40.391Z,12.54
2023-04-22T23:28:07.504Z,12.61
2023-04-22T23:30:34.765Z,12.53
2023-04-22T23:33:03.772Z,12.44
2023-04-22T23:35:33.121Z,12.37
2023-04-22T23:38:01.211Z,12.24
2023-04-22T23:40:30.191Z,12.17
2023-04-22T23:42:57.076Z,12.12
2023-04-22T23:45:23.707Z,12.12
2023-04-22T23:47:50.436Z,12.13
2023-04-22T23:50:19.099Z,12.00
2023-04-22T23:52:46.884Z,11.92
2023-04-22T23:55:17.103Z,11.91
2023-04-22T23:57:44.732Z,11.87
